Time;durP1;ratioP1;P1;durP2;ratioP2;P2;SDS_P1;SDS_P2;PMS_P1;PMS_P2;Temp;Humidity;BMP_temperature;BMP_pressure;BME280_temperature;BME280_humidity;BME280_pressure;Samples;Min_cycle;Max_cycle;Signal;HPM_P1;HPM_P2
2023/12/20 00:00:20;;;;;;;41.27;31.43;;;;;;;1.94;69.33;95284.56;4987339;28;20231;-70
2023/12/20 00:02:46;;;;;;;47.77;33.90;;;;;;;1.53;70.04;95277.50;4978994;28;20218;-71
2023/12/20 00:05:13;;;;;;;42.50;31.97;;;;;;;1.63;69.85;95260.50;4980994;28;20260;-71
2023/12/20 00:07:39;;;;;;;41.30;31.97;;;;;;;1.73;69.69;95265.94;4981625;28;20233;-71
2023/12/20 00:10:05;;;;;;;39.33;29.70;;;;;;;1.75;69.53;95257.16;4981678;28;20244;-71
2023/12/20 00:12:30;;;;;;;40.90;31.93;;;;;;;1.81;69.56;95257.72;4985024;28;20264;-73
2023/12/20 00:14:56;;;;;;;44.13;34.17;;;;;;;1.81;70.08;95252.53;4984102;28;20262;-73
2023/12/20 00:17:21;;;;;;;42.13;33.90;;;;;;;1.87;69.85;95255.59;4994165;28;20175;-73
2023/12/20 00:19:46;;;;;;;43.50;33.77;;;;;;;1.94;69.22;95254.28;4962876;28;20215;-74
2023/12/20 00:22:12;;;;;;;40.43;30.83;;;;;;;1.92;68.73;95252.69;4977079;28;20230;-73
2023/12/20 00:24:37;;;;;;;41.00;32.33;;;;;;;1.77;69.22;95254.47;4979766;28;20254;-73
2023/12/20 00:27:03;;;;;;;43.03;32.57;;;;;;;1.73;69.23;95247.78;4965706;28;20196;-73
2023/12/20 00:29:28;;;;;;;39.50;31.57;;;;;;;1.70;69.20;95235.84;4988530;28;20175;-73
2023/12/20 00:31:54;;;;;;;38.37;31.87;;;;;;;1.79;68.94;95241.41;4991877;28;20253;-73
2023/12/20 00:34:19;;;;;;;38.83;30.77;;;;;;;1.75;69.09;95239.00;4977359;28;20258;-74
2023/12/20 00:36:45;;;;;;;40.37;29.73;;;;;;;1.64;69.31;95238.81;4981575;28;20222;-71
2023/12/20 00:39:10;;;;;;;41.17;31.93;;;;;;;1.68;69.63;95227.31;5000295;28;20213;-71
2023/12/20 00:41:35;;;;;;;42.30;32.13;;;;;;;1.75;69.44;95225.22;4993440;28;20198;-71
2023/12/20 00:44:01;;;;;;;39.70;30.37;;;;;;;1.74;69.63;95219.19;4987227;28;20250;-71
2023/12/20 00:46:26;;;;;;;35.27;28.73;;;;;;;1.63;69.18;95215.56;4992891;28;20235;-70
2023/12/20 00:48:52;;;;;;;37.77;28.70;;;;;;;1.39;70.53;95217.88;4974904;28;20279;-70
2023/12/20 00:51:17;;;;;;;38.43;30.27;;;;;;;1.52;70.20;95214.50;4969874;28;20270;-71
2023/12/20 00:53:43;;;;;;;36.93;29.97;;;;;;;1.60;70.11;95206.22;4968877;28;20204;-73
2023/12/20 00:56:08;;;;;;;36.17;27.73;;;;;;;1.54;70.21;95201.41;4986662;28;20220;-71
2023/12/20 00:58:34;;;;;;;36.60;28.40;;;;;;;1.67;70.01;95215.31;4991435;28;20219;-71
2023/12/20 01:00:59;;;;;;;34.07;26.50;;;;;;;1.71;69.92;95206.44;4985497;28;20301;-70
2023/12/20 01:03:25;;;;;;;38.03;28.60;;;;;;;1.77;70.09;95203.44;4993508;28;20282;-70
2023/12/20 01:05:50;;;;;;;37.10;29.10;;;;;;;1.70;70.11;95201.31;4988867;28;20224;-69
2023/12/20 01:08:15;;;;;;;37.30;28.90;;;;;;;1.69;70.00;95187.53;4972309;28;20232;-70
2023/12/20 01:10:41;;;;;;;37.13;29.47;;;;;;;1.67;69.95;95184.19;4983340;28;20297;-71
2023/12/20 01:13:06;;;;;;;33.90;28.80;;;;;;;1.61;69.65;95191.53;4983354;28;20223;-72
2023/12/20 01:15:32;;;;;;;41.60;30.60;;;;;;;1.59;69.43;95189.03;4978022;28;20220;-73
2023/12/20 01:17:59;;;;;;;39.37;31.30;;;;;;;1.24;70.25;95185.97;4983842;28;20192;-72
2023/12/20 01:20:24;;;;;;;44.70;33.53;;;;;;;1.15;70.27;95186.50;4976489;28;20251;-72
2023/12/20 01:22:50;;;;;;;40.07;31.27;;;;;;;1.14;70.24;95177.06;4981627;28;20303;-72
2023/12/20 01:25:15;;;;;;;43.50;32.60;;;;;;;1.13;70.07;95178.81;4971402;28;20315;-72
2023/12/20 01:27:41;;;;;;;41.93;32.87;;;;;;;1.29;69.71;95169.22;4958897;28;20229;-72
2023/12/20 01:30:07;;;;;;;41.10;31.80;;;;;;;1.49;68.97;95156.81;4958302;28;20192;-72
2023/12/20 01:32:32;;;;;;;41.00;31.10;;;;;;;1.40;68.93;95165.16;4965540;28;20177;-72
2023/12/20 01:34:58;;;;;;;41.27;32.30;;;;;;;1.36;69.25;95158.47;4981199;28;20225;-72
2023/12/20 01:37:25;;;;;;;41.90;32.53;;;;;;;1.41;69.19;95164.22;4990546;28;20317;-72
2023/12/20 01:39:50;;;;;;;42.87;31.67;;;;;;;1.42;69.03;95155.53;4978973;28;20307;-72
2023/12/20 01:42:16;;;;;;;39.97;30.80;;;;;;;1.45;69.06;95156.16;4990646;28;20219;-71
2023/12/20 01:44:41;;;;;;;38.97;29.07;;;;;;;1.44;69.02;95156.25;4991359;28;20183;-72
2023/12/20 01:47:07;;;;;;;38.10;27.50;;;;;;;1.36;69.66;95143.75;4988612;28;20219;-72
2023/12/20 01:49:33;;;;;;;38.43;27.50;;;;;;;1.41;69.83;95143.47;4982286;28;20215;-73
2023/12/20 01:51:58;;;;;;;38.97;28.60;;;;;;;1.42;70.05;95132.22;4990704;28;20275;-73
2023/12/20 01:54:24;;;;;;;34.37;28.40;;;;;;;1.42;70.06;95129.63;4983481;28;20215;-72
2023/12/20 01:56:50;;;;;;;36.67;27.20;;;;;;;1.41;69.80;95135.72;4987307;28;20180;-72
2023/12/20 01:59:17;;;;;;;35.17;25.87;;;;;;;1.35;70.20;95128.31;4987497;28;20183;-72
2023/12/20 02:01:43;;;;;;;36.07;29.13;;;;;;;1.33;70.26;95131.00;4984542;28;20224;-72
2023/12/20 02:04:08;;;;;;;39.00;30.83;;;;;;;1.29;69.92;95120.00;4983572;28;20231;-71
2023/12/20 02:06:34;;;;;;;41.13;30.93;;;;;;;1.17;70.36;95115.53;4983011;28;20278;-71
2023/12/20 02:09:00;;;;;;;43.67;32.57;;;;;;;1.20;70.00;95120.53;4982860;28;20250;-71
2023/12/20 02:11:26;;;;;;;43.03;32.27;;;;;;;1.08;70.38;95114.34;4981139;28;20216;-71
2023/12/20 02:13:52;;;;;;;38.97;31.70;;;;;;;1.10;69.78;95109.91;4988300;28;20314;-71
2023/12/20 02:16:17;;;;;;;39.33;31.13;;;;;;;1.11;69.65;95105.56;4976005;28;20295;-71
2023/12/20 02:18:44;;;;;;;40.37;32.60;;;;;;;1.17;70.05;95107.78;4978929;28;20228;-71
2023/12/20 02:21:10;;;;;;;39.23;30.93;;;;;;;1.17;69.71;95104.34;4980030;28;20230;-71
2023/12/20 02:23:35;;;;;;;38.07;31.53;;;;;;;1.14;70.23;95099.38;4979442;28;20184;-71
2023/12/20 02:26:02;;;;;;;37.77;31.20;;;;;;;1.22;69.80;95100.56;4968648;28;20259;-71
2023/12/20 02:28:27;;;;;;;39.93;31.47;;;;;;;1.18;69.71;95096.50;4989963;28;20227;-72
2023/12/20 02:30:53;;;;;;;43.83;33.63;;;;;;;1.06;69.43;95097.25;4974337;28;20234;-72
2023/12/20 02:33:18;;;;;;;43.87;34.10;;;;;;;0.97;69.74;95092.63;4968970;28;20221;-72
2023/12/20 02:35:44;;;;;;;42.87;33.37;;;;;;;1.10;69.43;95090.97;4964296;28;20185;-72
2023/12/20 02:38:09;;;;;;;40.67;32.40;;;;;;;1.05;69.53;95086.06;4985988;28;20227;-72
2023/12/20 02:40:34;;;;;;;37.93;30.37;;;;;;;1.07;69.42;95086.81;4985357;28;20355;-72
2023/12/20 02:43:00;;;;;;;42.57;34.10;;;;;;;0.98;70.03;95078.75;4976505;28;20455;-72
2023/12/20 02:45:27;;;;;;;42.83;32.87;;;;;;;1.19;68.81;95074.84;4965256;28;20224;-72
2023/12/20 02:47:52;;;;;;;40.03;34.10;;;;;;;0.64;70.75;95083.31;4963752;28;20216;-72
2023/12/20 02:50:17;;;;;;;44.33;32.07;;;;;;;0.78;70.32;95088.53;4983875;28;20215;-72
2023/12/20 02:52:45;;;;;;;43.90;33.93;;;;;;;0.79;70.39;95074.66;4985064;28;20239;-72
2023/12/20 02:55:11;;;;;;;48.50;37.33;;;;;;;1.00;69.67;95087.25;4978141;28;20227;-72
2023/12/20 02:57:41;;;;;;;49.33;38.40;;;;;;;0.99;69.54;95080.41;4966353;28;20220;-72
2023/12/20 03:00:10;;;;;;;45.90;38.57;;;;;;;0.92;69.12;95079.94;4986685;28;20206;-72
2023/12/20 03:02:36;;;;;;;52.30;40.57;;;;;;;0.84;69.01;95079.56;4986231;28;20239;-72
2023/12/20 03:05:02;;;;;;;55.17;44.00;;;;;;;0.83;68.64;95080.50;4983216;28;20247;-72
2023/12/20 03:07:28;;;;;;;58.13;46.93;;;;;;;0.85;68.35;95074.28;4986406;28;20265;-72
2023/12/20 03:09:53;;;;;;;67.10;53.50;;;;;;;0.86;68.43;95080.31;4987903;28;20238;-72
2023/12/20 03:12:19;;;;;;;79.77;65.10;;;;;;;0.75;68.97;95075.78;4994059;28;20189;-72
2023/12/20 03:14:44;;;;;;;96.23;71.83;;;;;;;0.96;68.55;95076.22;4986624;28;20219;-72
2023/12/20 03:17:10;;;;;;;101.27;77.93;;;;;;;0.80;68.90;95073.75;4987118;28;20231;-72
2023/12/20 03:19:37;;;;;;;94.00;75.37;;;;;;;0.73;68.76;95064.69;4983130;28;20231;-72
2023/12/20 03:22:02;;;;;;;103.07;79.77;;;;;;;0.80;68.65;95062.53;4979619;28;20233;-72
2023/12/20 03:24:28;;;;;;;114.10;89.50;;;;;;;0.82;68.75;95074.47;4986821;28;20210;-72
2023/12/20 03:26:53;;;;;;;113.13;90.03;;;;;;;0.84;68.46;95071.81;4984443;28;20232;-71
2023/12/20 03:29:19;;;;;;;120.07;87.47;;;;;;;0.88;68.34;95062.91;4986806;28;20298;-71
2023/12/20 03:31:45;;;;;;;104.83;83.87;;;;;;;0.71;68.61;95055.34;4974179;28;20220;-72
2023/12/20 03:34:11;;;;;;;106.80;87.20;;;;;;;0.56;69.38;95060.50;4969825;28;20226;-71
2023/12/20 03:36:36;;;;;;;109.43;85.37;;;;;;;0.65;68.64;95053.94;4969527;28;20207;-71
2023/12/20 03:39:02;;;;;;;106.73;85.57;;;;;;;0.66;68.72;95061.59;4981025;28;20218;-73
2023/12/20 03:41:28;;;;;;;104.93;81.27;;;;;;;0.76;68.33;95059.31;4985916;28;20219;-72
2023/12/20 03:43:53;;;;;;;113.80;89.00;;;;;;;0.64;68.23;95055.72;4972754;28;20227;-73
2023/12/20 03:46:19;;;;;;;106.83;82.03;;;;;;;0.61;68.73;95057.63;4974787;28;20310;-72
2023/12/20 03:48:44;;;;;;;100.70;78.60;;;;;;;0.67;68.62;95052.13;4982708;28;20241;-72
2023/12/20 03:51:09;;;;;;;102.40;82.00;;;;;;;0.70;68.50;95053.69;4987462;28;20187;-71
2023/12/20 03:53:35;;;;;;;104.90;80.03;;;;;;;0.74;67.98;95050.81;4982793;28;20315;-71
2023/12/20 03:56:01;;;;;;;102.90;79.30;;;;;;;0.73;68.29;95048.31;4985249;28;20260;-72
2023/12/20 03:58:26;;;;;;;99.03;78.40;;;;;;;0.78;67.96;95044.53;4985431;28;20278;-71
2023/12/20 04:00:51;;;;;;;102.67;78.77;;;;;;;0.74;67.90;95044.81;4987847;28;20271;-71
2023/12/20 04:03:17;;;;;;;102.50;79.43;;;;;;;0.76;67.74;95037.78;4986991;28;20191;-71
2023/12/20 04:05:42;;;;;;;103.07;79.10;;;;;;;0.66;68.54;95040.91;4985930;28;20242;-71
2023/12/20 04:08:09;;;;;;;99.30;67.53;;;;;;;0.76;68.51;95038.63;4971127;28;20224;-71
2023/12/20 04:10:35;;;;;;;96.23;67.63;;;;;;;0.74;68.34;95042.22;4980513;28;20227;-72
2023/12/20 04:13:00;;;;;;;98.13;77.73;;;;;;;0.64;67.96;95029.84;4982099;28;20222;-72
2023/12/20 04:15:25;;;;;;;102.00;79.90;;;;;;;0.57;68.45;95023.34;4993064;28;20189;-72
2023/12/20 04:17:51;;;;;;;100.07;77.33;;;;;;;0.62;68.14;95023.91;4985532;28;20230;-72
2023/12/20 04:20:16;;;;;;;95.90;74.60;;;;;;;0.61;68.53;95024.00;4987473;28;20215;-72
2023/12/20 04:22:42;;;;;;;95.70;73.23;;;;;;;0.57;68.37;95015.59;4981298;28;20299;-72
2023/12/20 04:25:08;;;;;;;91.50;69.70;;;;;;;0.62;68.57;95021.31;4985155;28;20220;-72
2023/12/20 04:27:34;;;;;;;93.90;72.67;;;;;;;0.59;68.11;95021.50;4983886;28;20202;-72
2023/12/20 04:29:59;;;;;;;88.90;72.33;;;;;;;0.49;68.23;95016.97;4985499;28;20193;-72
2023/12/20 04:32:24;;;;;;;98.33;74.53;;;;;;;0.47;68.22;95013.63;4985799;28;20223;-71
2023/12/20 04:34:50;;;;;;;89.10;70.80;;;;;;;0.44;68.12;95001.72;4994807;28;20234;-71
2023/12/20 04:37:15;;;;;;;91.60;72.40;;;;;;;0.44;68.34;95006.91;4989825;28;20306;-72
2023/12/20 04:39:41;;;;;;;90.43;73.80;;;;;;;0.53;68.25;95008.91;4987983;28;20226;-72
2023/12/20 04:42:07;;;;;;;96.93;74.13;;;;;;;0.49;68.54;95001.47;4983941;28;20234;-72
2023/12/20 04:44:32;;;;;;;94.43;72.33;;;;;;;0.58;67.93;95003.47;4968210;28;20228;-73
2023/12/20 04:46:58;;;;;;;99.83;75.90;;;;;;;0.54;68.12;95002.00;4984452;28;20223;-71
2023/12/20 04:49:23;;;;;;;90.50;70.23;;;;;;;0.54;68.33;94997.66;4986005;28;20226;-72
2023/12/20 04:51:49;;;;;;;91.43;68.93;;;;;;;0.47;68.03;95001.53;4985068;28;20215;-70
2023/12/20 04:54:14;;;;;;;94.13;72.67;;;;;;;0.44;67.93;94991.38;4986885;28;20183;-72
2023/12/20 04:56:39;;;;;;;91.17;69.07;;;;;;;0.37;68.61;94995.22;4967211;28;20220;-72
2023/12/20 04:59:05;;;;;;;85.00;68.20;;;;;;;0.32;68.23;94987.78;4978572;28;20219;-72
2023/12/20 05:01:31;;;;;;;87.47;69.83;;;;;;;0.35;68.21;95000.50;4991225;28;20223;-72
2023/12/20 05:03:56;;;;;;;90.23;69.13;;;;;;;0.31;67.83;94980.09;4984448;28;20251;-72
2023/12/20 05:06:22;;;;;;;82.70;64.03;;;;;;;0.35;67.87;94991.94;4982095;28;20235;-72
2023/12/20 05:08:47;;;;;;;85.23;63.57;;;;;;;0.27;67.83;94991.53;4986436;28;20306;-72
2023/12/20 05:11:15;;;;;;;76.97;60.70;;;;;;;0.25;67.95;94990.81;4982236;28;20231;-71
2023/12/20 05:13:40;;;;;;;75.33;60.63;;;;;;;0.17;67.86;94993.84;4983410;28;20219;-72
2023/12/20 05:16:06;;;;;;;69.83;50.33;;;;;;;0.14;67.40;94996.59;4985412;28;20299;-72
2023/12/20 05:18:31;;;;;;;72.67;57.90;;;;;;;-0.02;67.13;94989.72;4996811;28;20282;-73
2023/12/20 05:20:57;;;;;;;71.70;57.33;;;;;;;-0.09;67.21;94982.41;4994305;28;20194;-72
2023/12/20 05:23:22;;;;;;;74.00;57.03;;;;;;;-0.17;67.11;94989.78;4991235;28;20215;-73
2023/12/20 05:25:48;;;;;;;75.03;57.90;;;;;;;-0.10;67.42;94986.75;4989006;28;20230;-73
2023/12/20 05:28:14;;;;;;;70.17;57.00;;;;;;;-0.13;67.46;94974.00;4993619;28;20223;-72
2023/12/20 05:30:40;;;;;;;73.87;57.33;;;;;;;-0.17;67.81;94966.50;4984678;28;20191;-74
2023/12/20 05:33:05;;;;;;;71.67;55.93;;;;;;;-0.21;67.67;94978.78;4986714;28;20195;-72
2023/12/20 05:35:31;;;;;;;69.47;55.63;;;;;;;-0.31;68.02;94972.47;4986107;28;20429;-71
2023/12/20 05:37:56;;;;;;;68.93;52.47;;;;;;;-0.18;67.97;94973.44;4989716;28;20227;-72
2023/12/20 05:40:21;;;;;;;72.87;54.97;;;;;;;-0.19;68.06;94971.75;4991661;28;20226;-72
2023/12/20 05:42:48;;;;;;;71.13;53.23;;;;;;;-0.19;68.12;94982.09;4991689;28;20207;-72
2023/12/20 05:45:14;;;;;;;72.57;54.53;;;;;;;-0.33;68.14;94969.97;4986190;28;20192;-72
2023/12/20 05:47:40;;;;;;;75.07;55.50;;;;;;;-0.43;68.63;94961.06;4987050;28;20310;-70
2023/12/20 05:50:06;;;;;;;79.40;56.73;;;;;;;-0.30;68.47;94966.38;4996290;28;20296;-72
2023/12/20 05:52:31;;;;;;;77.90;55.03;;;;;;;-0.54;69.15;94964.25;4987020;28;20234;-71
2023/12/20 05:55:00;;;;;;;74.77;53.73;;;;;;;-0.31;68.96;94964.72;4989324;28;20219;-72
2023/12/20 05:57:26;;;;;;;78.47;52.60;;;;;;;-0.34;69.41;94970.06;4993003;28;20238;-72
2023/12/20 05:59:51;;;;;;;72.17;48.07;;;;;;;-0.46;69.47;94964.66;4989366;28;20266;-72
2023/12/20 06:02:17;;;;;;;73.67;53.20;;;;;;;-0.42;69.82;94957.59;4991728;28;20228;-73
2023/12/20 06:04:43;;;;;;;72.43;51.40;;;;;;;-0.43;70.17;94947.31;5000981;28;20276;-72
2023/12/20 06:07:11;;;;;;;71.43;49.23;;;;;;;-0.40;70.01;94952.31;4991129;28;20239;-73
2023/12/20 06:09:37;;;;;;;67.73;47.63;;;;;;;-0.30;70.39;94959.44;4990861;28;20195;-72
2023/12/20 06:12:02;;;;;;;76.40;48.43;;;;;;;-0.36;70.03;94946.91;4989110;28;20238;-73
2023/12/20 06:14:28;;;;;;;67.50;48.30;;;;;;;-0.31;70.24;94951.81;4986376;28;20219;-72
2023/12/20 06:16:53;;;;;;;71.80;49.90;;;;;;;-0.36;70.84;94953.81;4992014;28;20311;-73
2023/12/20 06:19:19;;;;;;;71.50;49.70;;;;;;;-0.30;70.13;94959.44;4998248;28;20225;-74
2023/12/20 06:21:44;;;;;;;67.60;48.50;;;;;;;-0.29;70.24;94960.31;4985995;28;20182;-73
2023/12/20 06:24:10;;;;;;;63.53;46.53;;;;;;;-0.13;70.17;94968.00;4990581;28;20234;-72
2023/12/20 06:26:35;;;;;;;63.87;46.17;;;;;;;-0.31;70.39;94962.97;4984813;28;20235;-72
2023/12/20 06:29:00;;;;;;;62.53;45.00;;;;;;;-0.27;70.66;94961.88;4975957;28;20252;-72
2023/12/20 06:31:26;;;;;;;63.53;44.60;;;;;;;-0.35;70.80;94963.22;4978420;28;20310;-73
2023/12/20 06:33:57;;;;;;;58.03;43.80;;;;;;;-0.16;70.24;94960.41;4990125;28;20226;-71
2023/12/20 06:36:26;;;;;;;57.23;42.10;;;;;;;-0.27;70.56;94955.88;4983466;28;20192;-72
2023/12/20 06:38:52;;;;;;;56.80;42.00;;;;;;;-0.25;70.51;94965.19;4982566;28;20702;-73
2023/12/20 06:41:18;;;;;;;55.23;42.20;;;;;;;-0.13;70.42;94961.09;4991172;28;20285;-71
2023/12/20 06:43:43;;;;;;;53.27;37.67;;;;;;;-0.12;70.17;94957.56;4987619;28;20231;-73
2023/12/20 06:46:09;;;;;;;54.23;39.47;;;;;;;-0.09;70.03;94947.06;4990722;28;20326;-71
2023/12/20 06:48:35;;;;;;;54.60;40.57;;;;;;;-0.03;69.91;94936.38;4988161;28;20237;-70
2023/12/20 06:51:04;;;;;;;56.70;39.60;;;;;;;-0.08;70.05;94934.94;4985858;28;20186;-72
2023/12/20 06:53:30;;;;;;;47.77;33.33;;;;;;;-0.09;70.42;94936.72;4988122;28;20219;-78
2023/12/20 06:55:58;;;;;;;52.97;34.47;;;;;;;-0.14;70.67;94940.50;4986528;28;20206;-76
2023/12/20 06:58:24;;;;;;;50.23;37.00;;;;;;;0.03;70.21;94939.50;4976917;28;20219;-76
2023/12/20 07:00:50;;;;;;;55.03;38.90;;;;;;;0.02;70.44;94941.25;4988211;28;20230;-73
2023/12/20 07:03:16;;;;;;;54.43;39.20;;;;;;;0.15;69.91;94937.03;4995207;28;20182;-74
2023/12/20 07:05:41;;;;;;;50.83;36.87;;;;;;;0.20;70.16;94926.41;4987197;28;20242;-77
2023/12/20 07:08:07;;;;;;;51.67;38.33;;;;;;;0.17;70.25;94935.19;4988688;28;20223;-74
2023/12/20 07:10:32;;;;;;;52.20;36.97;;;;;;;0.36;69.67;94911.63;4988879;28;20313;-75
2023/12/20 07:12:58;;;;;;;51.97;34.20;;;;;;;0.34;69.94;94917.81;4983363;28;20279;-75
2023/12/20 07:15:23;;;;;;;55.87;38.20;;;;;;;0.33;69.92;94918.75;4987034;28;20232;-75
2023/12/20 07:17:49;;;;;;;59.40;44.57;;;;;;;0.50;69.55;94907.38;4983747;28;20227;-78
2023/12/20 07:20:15;;;;;;;62.53;43.73;;;;;;;0.43;69.15;94906.94;4982670;28;20227;-76
2023/12/20 07:22:40;;;;;;;65.53;45.13;;;;;;;0.48;68.76;94915.22;4972790;28;20236;-71
2023/12/20 07:25:06;;;;;;;65.37;44.73;;;;;;;0.37;68.86;94905.53;4969104;28;20237;-70
2023/12/20 07:27:32;;;;;;;63.30;45.00;;;;;;;0.58;68.55;94905.97;4978881;28;20204;-71
2023/12/20 07:29:57;;;;;;;70.43;48.40;;;;;;;0.70;68.47;94893.25;4980339;28;20203;-71
2023/12/20 07:32:22;;;;;;;70.27;49.07;;;;;;;0.71;67.92;94897.47;4984828;28;20239;-71
2023/12/20 07:34:48;;;;;;;74.37;50.47;;;;;;;0.81;68.46;94901.16;4991096;28;20227;-71
2023/12/20 07:37:13;;;;;;;65.13;47.07;;;;;;;0.95;67.42;94902.88;4981383;28;20477;-72
2023/12/20 07:39:42;;;;;;;66.23;46.50;;;;;;;1.27;67.69;94906.84;4979225;28;20215;-71
2023/12/20 07:42:08;;;;;;;63.77;45.87;;;;;;;1.09;67.72;94895.06;4985336;28;20243;-69
2023/12/20 07:44:35;;;;;;;68.27;48.87;;;;;;;1.37;67.40;94908.84;4985000;28;20228;-70
2023/12/20 07:47:01;;;;;;;66.70;48.90;;;;;;;0.91;68.12;94901.41;4975318;28;20228;-70
2023/12/20 07:49:27;;;;;;;72.63;49.80;;;;;;;0.81;69.32;94904.56;4977315;28;20318;-68
2023/12/20 07:51:52;;;;;;;67.57;49.27;;;;;;;0.83;69.06;94891.53;4981862;28;20227;-72
2023/12/20 07:54:17;;;;;;;63.13;45.17;;;;;;;0.99;68.76;94888.78;4984449;28;20199;-71
2023/12/20 07:56:43;;;;;;;61.23;42.83;;;;;;;1.12;68.44;94887.09;4982909;28;20252;-69
2023/12/20 07:59:09;;;;;;;59.67;40.23;;;;;;;1.03;68.94;94900.63;4982459;28;20223;-69
2023/12/20 08:01:34;;;;;;;57.77;40.47;;;;;;;1.18;68.92;94889.31;4989963;28;20266;-70
2023/12/20 08:03:59;;;;;;;56.13;39.90;;;;;;;1.27;68.50;94888.72;4987481;28;20245;-70
2023/12/20 08:06:25;;;;;;;57.20;38.67;;;;;;;1.38;68.09;94888.00;4986175;28;20239;-69
2023/12/20 08:08:50;;;;;;;53.73;38.40;;;;;;;1.47;68.01;94896.94;4981908;28;20228;-70
2023/12/20 08:11:16;;;;;;;49.40;35.20;;;;;;;1.46;67.77;94883.16;4981988;28;20227;-68
2023/12/20 08:13:41;;;;;;;52.53;37.97;;;;;;;1.42;68.14;94876.53;4984699;28;20226;-68
2023/12/20 08:16:07;;;;;;;50.27;36.43;;;;;;;1.44;68.49;94884.19;4979444;28;20227;-70
2023/12/20 08:18:32;;;;;;;49.10;36.10;;;;;;;1.58;68.26;94872.91;4979266;28;20291;-70
2023/12/20 08:20:57;;;;;;;51.43;35.40;;;;;;;1.57;68.38;94874.69;4980403;28;20196;-71
2023/12/20 08:23:23;;;;;;;51.07;35.70;;;;;;;1.54;69.19;94882.66;4989928;28;20224;-71
2023/12/20 08:25:49;;;;;;;48.80;34.47;;;;;;;1.72;68.74;94872.84;4986290;28;20231;-71
2023/12/20 08:28:14;;;;;;;46.23;32.77;;;;;;;1.60;69.22;94876.25;4982324;28;20223;-69
2023/12/20 08:30:40;;;;;;;46.80;34.00;;;;;;;1.86;68.19;94861.56;4988090;28;20223;-70
2023/12/20 08:33:11;;;;;;;47.30;33.13;;;;;;;1.79;68.72;94875.84;4982341;28;20203;-69
2023/12/20 08:35:36;;;;;;;49.10;34.03;;;;;;;1.93;68.64;94850.69;4962987;28;20221;-73
2023/12/20 08:38:02;;;;;;;44.07;32.60;;;;;;;1.86;68.39;94838.22;4972920;28;20256;-72
2023/12/20 08:40:27;;;;;;;43.83;32.00;;;;;;;1.90;68.75;94850.06;4960943;28;20275;-73
2023/12/20 08:42:53;;;;;;;51.13;33.00;;;;;;;1.85;68.77;94844.34;4980631;28;20275;-72
2023/12/20 08:45:18;;;;;;;49.53;34.07;;;;;;;1.72;68.73;94832.22;4954524;28;20180;-74
2023/12/20 08:47:44;;;;;;;52.43;34.17;;;;;;;1.76;69.37;94854.41;4976619;28;20311;-69
2023/12/20 08:50:10;;;;;;;51.20;35.87;;;;;;;1.90;68.13;94818.94;4980997;28;20223;-68
2023/12/20 08:52:36;;;;;;;53.83;35.00;;;;;;;1.61;69.58;94834.69;4985742;28;20255;-67
2023/12/20 08:55:01;;;;;;;53.53;36.03;;;;;;;1.58;70.53;94829.72;4984768;28;20243;-75
2023/12/20 08:57:27;;;;;;;57.70;35.77;;;;;;;1.76;69.80;94846.63;4987646;28;20233;-68
2023/12/20 08:59:52;;;;;;;55.40;36.13;;;;;;;1.83;70.17;94828.06;4987485;28;20277;-73
2023/12/20 09:02:17;;;;;;;58.20;38.20;;;;;;;1.92;69.83;94825.66;4983425;28;20227;-75
2023/12/20 09:04:43;;;;;;;61.97;39.07;;;;;;;2.05;70.03;94817.06;4980418;28;20219;-73
2023/12/20 09:07:30;;;;;;;67.17;39.70;;;;;;;2.14;69.39;94819.88;4986884;28;20313;-72
2023/12/20 09:09:55;;;;;;;62.57;38.00;;;;;;;2.24;69.39;94809.66;4984791;28;20224;-69
2023/12/20 09:12:21;;;;;;;59.33;38.07;;;;;;;2.12;69.07;94797.56;4984074;28;20179;-70
2023/12/20 09:14:47;;;;;;;61.00;37.60;;;;;;;2.17;69.05;94777.31;4983127;28;20262;-68
2023/12/20 09:17:13;;;;;;;66.50;38.30;;;;;;;2.15;69.26;94777.41;4990737;28;20200;-69
2023/12/20 09:19:38;;;;;;;64.97;37.80;;;;;;;2.04;69.15;94759.19;4971477;28;20371;-73
2023/12/20 09:22:04;;;;;;;60.60;37.50;;;;;;;2.09;69.34;94772.66;4982908;28;20183;-69
2023/12/20 09:24:30;;;;;;;62.40;38.17;;;;;;;2.13;69.08;94755.09;4981520;28;20215;-73
2023/12/20 09:26:56;;;;;;;64.27;39.30;;;;;;;2.23;68.78;94750.94;4992403;28;20223;-74
2023/12/20 09:29:22;;;;;;;65.97;39.87;;;;;;;2.21;69.21;94750.22;4984807;28;20270;-71
2023/12/20 09:31:47;;;;;;;66.63;41.57;;;;;;;2.29;69.42;94750.50;4984416;28;20231;-69
2023/12/20 09:34:15;;;;;;;62.13;40.70;;;;;;;2.28;69.35;94735.06;4983326;28;20226;-73
2023/12/20 09:36:46;;;;;;;69.47;41.10;;;;;;;2.31;69.83;94746.03;4984699;28;20179;-71
2023/12/20 09:39:12;;;;;;;64.87;39.30;;;;;;;2.27;69.46;94733.38;4982669;28;20224;-73
2023/12/20 09:41:43;;;;;;;73.20;41.07;;;;;;;2.41;69.55;94728.88;4981549;28;20224;-70
2023/12/20 09:44:14;;;;;;;71.53;43.93;;;;;;;2.33;69.63;94723.41;4988536;28;20223;-74
2023/12/20 09:46:43;;;;;;;77.13;44.63;;;;;;;2.57;69.76;94723.44;4978871;28;20224;-71
2023/12/20 09:49:10;;;;;;;76.33;43.83;;;;;;;2.38;70.07;94723.91;4981554;28;20224;-71
2023/12/20 09:51:36;;;;;;;80.63;45.17;;;;;;;2.49;70.19;94720.56;4986189;28;20215;-75
2023/12/20 09:54:03;;;;;;;71.87;43.00;;;;;;;2.46;69.76;94710.41;4968897;28;20255;-71
2023/12/20 09:56:29;;;;;;;68.60;42.17;;;;;;;2.60;69.57;94699.00;4980023;28;20212;-73
2023/12/20 09:58:55;;;;;;;76.93;43.43;;;;;;;2.66;69.25;94703.75;4985740;28;20296;-71
2023/12/20 10:01:22;;;;;;;77.97;44.23;;;;;;;2.67;69.05;94694.19;4960112;28;20275;-70
2023/12/20 10:03:47;;;;;;;68.37;42.03;;;;;;;2.71;69.36;94696.47;4970645;28;20250;-70
2023/12/20 10:06:13;;;;;;;69.90;40.47;;;;;;;3.19;68.32;94695.56;4968028;28;20240;-71
2023/12/20 10:08:39;;;;;;;68.60;42.27;;;;;;;3.54;67.23;94691.09;4965049;28;20243;-77
2023/12/20 10:11:05;;;;;;;71.87;42.97;;;;;;;3.58;66.39;94677.88;4965220;28;20260;-70
2023/12/20 10:13:30;;;;;;;72.03;44.20;;;;;;;3.68;66.01;94655.41;4969542;28;20231;-73
2023/12/20 10:15:57;;;;;;;71.63;44.20;;;;;;;3.91;65.05;94672.66;4964711;28;20257;-69
2023/12/20 10:18:22;;;;;;;68.33;43.93;;;;;;;3.61;66.38;94664.63;4959789;28;20196;-73
2023/12/20 10:20:48;;;;;;;72.87;44.37;;;;;;;3.68;65.66;94660.63;4971312;28;20220;-73
2023/12/20 10:23:15;;;;;;;65.27;42.47;;;;;;;3.98;65.18;94647.84;4973104;28;20281;-68
2023/12/20 10:25:44;;;;;;;69.47;44.27;;;;;;;4.07;64.44;94648.06;4961410;28;20251;-70
2023/12/20 10:28:14;;;;;;;61.53;42.63;;;;;;;3.85;65.31;94647.16;4960018;28;20224;-70
2023/12/20 10:30:41;;;;;;;68.07;45.10;;;;;;;3.94;65.02;94636.00;4968397;28;20192;-72
2023/12/20 10:33:07;;;;;;;70.27;43.67;;;;;;;4.04;64.61;94637.91;4964483;28;20216;-70
2023/12/20 10:35:34;;;;;;;62.57;44.27;;;;;;;3.68;66.11;94640.63;4966917;28;20217;-71
2023/12/20 10:38:03;;;;;;;68.17;45.30;;;;;;;3.94;66.08;94641.22;4959757;28;20225;-70
2023/12/20 10:40:29;;;;;;;61.17;42.37;;;;;;;4.36;64.76;94635.31;4962382;28;20220;-72
2023/12/20 10:42:56;;;;;;;69.23;42.57;;;;;;;4.52;63.66;94609.69;4947166;28;20196;-76
2023/12/20 10:45:23;;;;;;;63.67;43.20;;;;;;;4.60;64.02;94609.06;4959736;28;20280;-71
2023/12/20 10:47:50;;;;;;;61.23;42.40;;;;;;;4.90;63.26;94604.91;4964574;28;20228;-69
2023/12/20 10:50:15;;;;;;;64.63;43.03;;;;;;;5.16;62.21;94603.53;4979474;28;20242;-75
2023/12/20 10:52:42;;;;;;;64.87;45.33;;;;;;;5.52;60.36;94610.00;4982816;28;20307;-74
2023/12/20 10:55:08;;;;;;;65.43;45.33;;;;;;;5.07;61.82;94609.50;4986506;28;20270;-73
2023/12/20 10:57:36;;;;;;;66.83;45.27;;;;;;;5.06;61.47;94589.63;4985483;28;20212;-72
2023/12/20 11:00:04;;;;;;;66.77;44.43;;;;;;;4.79;63.03;94595.38;4988436;28;20235;-75
2023/12/20 11:02:39;;;;;;;70.83;47.07;;;;;;;4.69;63.20;94590.06;4991823;28;20290;-69
2023/12/20 11:05:38;;;;;;;64.67;46.27;;;;;;;4.53;63.77;94577.50;4984686;28;20247;-72
2023/12/20 11:08:12;;;;;;;73.87;48.67;;;;;;;4.32;64.33;94576.63;5003963;28;20318;-73
2023/12/20 11:11:05;;;;;;;75.73;49.60;;;;;;;4.16;65.20;94592.66;4988916;28;20280;-70
2023/12/20 11:14:03;;;;;;;71.63;47.20;;;;;;;4.05;65.48;94577.09;4985688;28;20258;-69
2023/12/20 11:16:31;;;;;;;72.23;48.43;;;;;;;3.95;65.88;94563.97;4873909;29;20231;-74
2023/12/20 11:18:57;;;;;;;73.60;45.63;;;;;;;3.78;66.32;94567.94;4894121;29;20282;-70